Terminal Aerodrome Forecast
Issued by NWS Grand Forks, ND

Home | Current Version | Previous Version | Text Only | Print | Product List | Glossary Off
Versions: 1 2 3 4 5 6 7 8 9 10 11 12 13 14 15 16 17

212
FTUS43 KFGF 031125
TAFGFK
TAF
KGFK 031125Z 0312/0412 VRB05KT P6SM BKN200
     FM031300 33007KT P6SM BKN080
     FM040000 22007KT P6SM -SN BKN025
     FM040300 26009KT P6SM BKN025=

USA.gov is the U.S. government's official web portal to all federal, state and local government web resources and services.